sensor_id;sensor_type;location;lat;lon;timestamp;P1;durP1;ratioP1;P2;durP2;ratioP2
29330;SDS011;16331;52.528;13.342;2022-12-07T00:01:35;18.75;;;6.63;;
29330;SDS011;16331;52.528;13.342;2022-12-07T00:04:05;23.92;;;6.93;;
29330;SDS011;16331;52.528;13.342;2022-12-07T00:06:37;18.25;;;6.55;;
29330;SDS011;16331;52.528;13.342;2022-12-07T00:11:33;26.13;;;8.13;;
29330;SDS011;16331;52.528;13.342;2022-12-07T00:14:01;19.55;;;7.10;;
29330;SDS011;16331;52.528;13.342;2022-12-07T00:16:31;22.17;;;6.82;;
29330;SDS011;16331;52.528;13.342;2022-12-07T00:18:58;27.75;;;8.35;;
29330;SDS011;16331;52.528;13.342;2022-12-07T00:21:25;19.50;;;7.68;;
29330;SDS011;16331;52.528;13.342;2022-12-07T00:23:54;19.92;;;7.55;;
29330;SDS011;16331;52.528;13.342;2022-12-07T00:26:22;18.98;;;7.53;;
29330;SDS011;16331;52.528;13.342;2022-12-07T00:28:54;22.27;;;6.85;;
29330;SDS011;16331;52.528;13.342;2022-12-07T00:31:22;23.83;;;7.43;;
29330;SDS011;16331;52.528;13.342;2022-12-07T00:33:51;16.63;;;7.05;;
29330;SDS011;16331;52.528;13.342;2022-12-07T00:36:19;18.50;;;6.15;;
29330;SDS011;16331;52.528;13.342;2022-12-07T00:38:48;24.33;;;7.57;;
29330;SDS011;16331;52.528;13.342;2022-12-07T00:41:15;21.15;;;7.55;;
29330;SDS011;16331;52.528;13.342;2022-12-07T00:43:44;19.48;;;7.25;;
29330;SDS011;16331;52.528;13.342;2022-12-07T00:46:12;21.23;;;6.82;;
29330;SDS011;16331;52.528;13.342;2022-12-07T00:48:38;15.98;;;6.20;;
29330;SDS011;16331;52.528;13.342;2022-12-07T00:51:07;17.73;;;6.57;;
29330;SDS011;16331;52.528;13.342;2022-12-07T00:53:36;17.73;;;6.68;;
29330;SDS011;16331;52.528;13.342;2022-12-07T00:56:19;15.57;;;6.40;;
29330;SDS011;16331;52.528;13.342;2022-12-07T00:58:55;15.80;;;6.25;;
29330;SDS011;16331;52.528;13.342;2022-12-07T01:01:23;13.57;;;6.45;;
29330;SDS011;16331;52.528;13.342;2022-12-07T01:03:51;18.65;;;6.93;;
29330;SDS011;16331;52.528;13.342;2022-12-07T01:06:19;12.32;;;5.55;;
29330;SDS011;16331;52.528;13.342;2022-12-07T01:08:48;15.70;;;6.10;;
29330;SDS011;16331;52.528;13.342;2022-12-07T01:11:16;13.52;;;5.70;;
29330;SDS011;16331;52.528;13.342;2022-12-07T01:13:44;18.98;;;6.72;;
29330;SDS011;16331;52.528;13.342;2022-12-07T01:16:12;14.70;;;6.43;;
29330;SDS011;16331;52.528;13.342;2022-12-07T01:18:40;16.33;;;6.05;;
29330;SDS011;16331;52.528;13.342;2022-12-07T01:21:09;12.98;;;4.45;;
29330;SDS011;16331;52.528;13.342;2022-12-07T01:23:38;14.18;;;5.35;;
29330;SDS011;16331;52.528;13.342;2022-12-07T01:26:06;11.75;;;4.97;;
29330;SDS011;16331;52.528;13.342;2022-12-07T01:28:39;14.70;;;5.72;;
29330;SDS011;16331;52.528;13.342;2022-12-07T01:31:07;12.05;;;4.70;;
29330;SDS011;16331;52.528;13.342;2022-12-07T01:33:38;13.15;;;4.95;;
29330;SDS011;16331;52.528;13.342;2022-12-07T01:36:06;10.85;;;4.93;;
29330;SDS011;16331;52.528;13.342;2022-12-07T01:38:44;8.88;;;4.50;;
29330;SDS011;16331;52.528;13.342;2022-12-07T01:41:12;11.90;;;4.30;;
29330;SDS011;16331;52.528;13.342;2022-12-07T01:46:49;10.35;;;4.80;;
29330;SDS011;16331;52.528;13.342;2022-12-07T01:49:21;9.07;;;4.55;;
29330;SDS011;16331;52.528;13.342;2022-12-07T01:52:15;7.13;;;3.63;;
29330;SDS011;16331;52.528;13.342;2022-12-07T01:54:49;10.73;;;4.43;;
29330;SDS011;16331;52.528;13.342;2022-12-07T01:57:22;8.93;;;3.70;;
29330;SDS011;16331;52.528;13.342;2022-12-07T01:59:49;8.85;;;4.20;;
29330;SDS011;16331;52.528;13.342;2022-12-07T02:02:22;8.45;;;4.35;;
29330;SDS011;16331;52.528;13.342;2022-12-07T02:04:59;11.77;;;4.50;;
29330;SDS011;16331;52.528;13.342;2022-12-07T02:07:26;9.43;;;4.30;;
29330;SDS011;16331;52.528;13.342;2022-12-07T02:09:54;8.85;;;3.88;;
29330;SDS011;16331;52.528;13.342;2022-12-07T02:12:20;9.93;;;3.97;;
29330;SDS011;16331;52.528;13.342;2022-12-07T02:14:50;8.77;;;3.78;;
29330;SDS011;16331;52.528;13.342;2022-12-07T02:20:13;7.05;;;3.45;;
29330;SDS011;16331;52.528;13.342;2022-12-07T02:23:10;5.30;;;3.40;;
29330;SDS011;16331;52.528;13.342;2022-12-07T02:32:44;7.47;;;3.50;;
29330;SDS011;16331;52.528;13.342;2022-12-07T02:40:38;11.20;;;4.72;;
29330;SDS011;16331;52.528;13.342;2022-12-07T02:43:12;7.82;;;4.28;;
29330;SDS011;16331;52.528;13.342;2022-12-07T02:45:40;8.48;;;3.72;;
29330;SDS011;16331;52.528;13.342;2022-12-07T02:48:10;9.82;;;4.35;;
29330;SDS011;16331;52.528;13.342;2022-12-07T02:50:38;8.60;;;4.13;;
29330;SDS011;16331;52.528;13.342;2022-12-07T02:53:27;11.18;;;4.28;;
29330;SDS011;16331;52.528;13.342;2022-12-07T02:55:56;11.13;;;4.65;;
29330;SDS011;16331;52.528;13.342;2022-12-07T03:01:51;8.45;;;4.05;;
29330;SDS011;16331;52.528;13.342;2022-12-07T03:07:49;12.93;;;4.93;;
29330;SDS011;16331;52.528;13.342;2022-12-07T03:10:27;10.07;;;4.43;;
29330;SDS011;16331;52.528;13.342;2022-12-07T03:13:22;10.40;;;4.68;;
29330;SDS011;16331;52.528;13.342;2022-12-07T03:18:51;14.57;;;4.65;;
29330;SDS011;16331;52.528;13.342;2022-12-07T03:21:23;14.30;;;5.15;;
29330;SDS011;16331;52.528;13.342;2022-12-07T03:24:12;15.10;;;5.97;;
29330;SDS011;16331;52.528;13.342;2022-12-07T03:26:47;16.33;;;6.03;;
29330;SDS011;16331;52.528;13.342;2022-12-07T03:29:18;13.88;;;5.75;;
29330;SDS011;16331;52.528;13.342;2022-12-07T03:36:54;11.25;;;4.80;;
29330;SDS011;16331;52.528;13.342;2022-12-07T03:39:35;17.52;;;6.53;;
29330;SDS011;16331;52.528;13.342;2022-12-07T03:42:07;17.15;;;5.35;;
29330;SDS011;16331;52.528;13.342;2022-12-07T03:44:35;18.85;;;6.50;;
29330;SDS011;16331;52.528;13.342;2022-12-07T03:47:07;15.02;;;5.97;;
29330;SDS011;16331;52.528;13.342;2022-12-07T03:55:14;13.98;;;6.40;;
29330;SDS011;16331;52.528;13.342;2022-12-07T03:57:48;14.75;;;5.28;;
29330;SDS011;16331;52.528;13.342;2022-12-07T04:00:18;14.05;;;6.07;;
29330;SDS011;16331;52.528;13.342;2022-12-07T04:02:46;12.77;;;6.40;;
29330;SDS011;16331;52.528;13.342;2022-12-07T04:05:12;16.10;;;5.85;;
29330;SDS011;16331;52.528;13.342;2022-12-07T04:07:38;18.52;;;6.65;;
29330;SDS011;16331;52.528;13.342;2022-12-07T04:10:06;15.45;;;5.82;;
29330;SDS011;16331;52.528;13.342;2022-12-07T04:12:32;18.83;;;6.65;;
29330;SDS011;16331;52.528;13.342;2022-12-07T04:14:59;21.38;;;6.85;;
29330;SDS011;16331;52.528;13.342;2022-12-07T04:17:25;19.38;;;7.40;;
29330;SDS011;16331;52.528;13.342;2022-12-07T04:19:51;15.15;;;6.72;;
29330;SDS011;16331;52.528;13.342;2022-12-07T04:22:17;20.15;;;7.15;;
29330;SDS011;16331;52.528;13.342;2022-12-07T04:24:43;20.77;;;7.07;;
29330;SDS011;16331;52.528;13.342;2022-12-07T04:27:10;18.20;;;7.30;;
29330;SDS011;16331;52.528;13.342;2022-12-07T04:29:41;17.67;;;6.88;;
29330;SDS011;16331;52.528;13.342;2022-12-07T04:32:07;25.02;;;7.43;;
29330;SDS011;16331;52.528;13.342;2022-12-07T04:34:33;24.23;;;7.55;;
29330;SDS011;16331;52.528;13.342;2022-12-07T04:36:59;21.13;;;8.30;;
29330;SDS011;16331;52.528;13.342;2022-12-07T04:39:27;20.70;;;6.88;;
29330;SDS011;16331;52.528;13.342;2022-12-07T04:41:55;19.73;;;8.00;;
29330;SDS011;16331;52.528;13.342;2022-12-07T04:44:24;22.98;;;8.32;;
29330;SDS011;16331;52.528;13.342;2022-12-07T04:46:52;21.80;;;8.07;;
29330;SDS011;16331;52.528;13.342;2022-12-07T04:49:18;24.38;;;8.18;;
29330;SDS011;16331;52.528;13.342;2022-12-07T04:51:45;26.80;;;8.60;;
29330;SDS011;16331;52.528;13.342;2022-12-07T04:54:13;24.10;;;9.05;;
29330;SDS011;16331;52.528;13.342;2022-12-07T04:56:43;25.83;;;9.07;;
29330;SDS011;16331;52.528;13.342;2022-12-07T04:59:13;23.42;;;8.38;;
29330;SDS011;16331;52.528;13.342;2022-12-07T05:01:47;29.23;;;10.23;;
29330;SDS011;16331;52.528;13.342;2022-12-07T05:04:13;27.17;;;9.82;;
29330;SDS011;16331;52.528;13.342;2022-12-07T05:06:41;28.98;;;9.90;;
29330;SDS011;16331;52.528;13.342;2022-12-07T05:09:07;27.08;;;9.10;;
29330;SDS011;16331;52.528;13.342;2022-12-07T05:11:33;33.40;;;10.02;;
29330;SDS011;16331;52.528;13.342;2022-12-07T05:14:06;26.88;;;10.20;;
29330;SDS011;16331;52.528;13.342;2022-12-07T05:16:44;35.67;;;9.95;;
29330;SDS011;16331;52.528;13.342;2022-12-07T05:19:12;36.92;;;10.52;;
29330;SDS011;16331;52.528;13.342;2022-12-07T05:21:38;39.03;;;11.23;;
29330;SDS011;16331;52.528;13.342;2022-12-07T05:24:05;28.98;;;10.07;;
29330;SDS011;16331;52.528;13.342;2022-12-07T05:26:33;32.60;;;11.65;;
29330;SDS011;16331;52.528;13.342;2022-12-07T05:28:59;29.35;;;9.63;;
29330;SDS011;16331;52.528;13.342;2022-12-07T05:31:25;38.22;;;12.25;;
29330;SDS011;16331;52.528;13.342;2022-12-07T05:33:53;37.75;;;10.98;;
29330;SDS011;16331;52.528;13.342;2022-12-07T05:36:21;28.17;;;10.43;;
29330;SDS011;16331;52.528;13.342;2022-12-07T05:38:48;36.17;;;12.10;;
29330;SDS011;16331;52.528;13.342;2022-12-07T05:41:15;36.00;;;12.38;;
29330;SDS011;16331;52.528;13.342;2022-12-07T05:44:02;37.00;;;12.85;;
29330;SDS011;16331;52.528;13.342;2022-12-07T05:46:29;37.17;;;12.30;;
29330;SDS011;16331;52.528;13.342;2022-12-07T05:48:56;36.80;;;11.68;;
29330;SDS011;16331;52.528;13.342;2022-12-07T05:51:22;35.92;;;15.38;;
29330;SDS011;16331;52.528;13.342;2022-12-07T05:53:48;36.08;;;13.80;;
29330;SDS011;16331;52.528;13.342;2022-12-07T05:56:14;43.92;;;13.07;;
29330;SDS011;16331;52.528;13.342;2022-12-07T05:58:40;40.00;;;11.98;;
29330;SDS011;16331;52.528;13.342;2022-12-07T06:01:26;36.08;;;11.52;;
29330;SDS011;16331;52.528;13.342;2022-12-07T06:03:52;38.50;;;11.52;;
29330;SDS011;16331;52.528;13.342;2022-12-07T06:06:19;35.17;;;13.32;;
29330;SDS011;16331;52.528;13.342;2022-12-07T06:08:45;39.72;;;13.85;;
29330;SDS011;16331;52.528;13.342;2022-12-07T06:11:11;38.90;;;17.88;;
29330;SDS011;16331;52.528;13.342;2022-12-07T06:13:55;45.97;;;14.95;;
29330;SDS011;16331;52.528;13.342;2022-12-07T06:16:21;37.85;;;13.52;;
29330;SDS011;16331;52.528;13.342;2022-12-07T06:18:48;35.85;;;11.75;;
29330;SDS011;16331;52.528;13.342;2022-12-07T06:21:14;37.55;;;12.88;;
29330;SDS011;16331;52.528;13.342;2022-12-07T06:23:40;35.58;;;13.25;;
29330;SDS011;16331;52.528;13.342;2022-12-07T06:26:06;32.42;;;11.80;;
29330;SDS011;16331;52.528;13.342;2022-12-07T06:28:32;33.33;;;11.60;;
29330;SDS011;16331;52.528;13.342;2022-12-07T06:30:59;40.88;;;12.57;;
29330;SDS011;16331;52.528;13.342;2022-12-07T06:33:27;36.92;;;12.50;;
29330;SDS011;16331;52.528;13.342;2022-12-07T06:35:54;28.40;;;12.43;;
29330;SDS011;16331;52.528;13.342;2022-12-07T06:38:21;27.35;;;10.60;;
29330;SDS011;16331;52.528;13.342;2022-12-07T06:40:47;37.17;;;12.23;;
29330;SDS011;16331;52.528;13.342;2022-12-07T06:43:18;32.83;;;11.50;;
29330;SDS011;16331;52.528;13.342;2022-12-07T06:45:44;34.85;;;11.82;;
29330;SDS011;16331;52.528;13.342;2022-12-07T06:48:11;39.60;;;12.43;;
29330;SDS011;16331;52.528;13.342;2022-12-07T06:50:37;36.05;;;12.48;;
29330;SDS011;16331;52.528;13.342;2022-12-07T06:53:03;45.78;;;14.40;;
29330;SDS011;16331;52.528;13.342;2022-12-07T06:55:29;39.75;;;12.38;;
29330;SDS011;16331;52.528;13.342;2022-12-07T06:57:56;41.45;;;13.05;;
29330;SDS011;16331;52.528;13.342;2022-12-07T07:00:22;54.63;;;14.60;;
29330;SDS011;16331;52.528;13.342;2022-12-07T07:02:50;35.92;;;11.23;;
29330;SDS011;16331;52.528;13.342;2022-12-07T07:05:16;38.90;;;14.05;;
29330;SDS011;16331;52.528;13.342;2022-12-07T07:07:43;37.03;;;13.13;;
29330;SDS011;16331;52.528;13.342;2022-12-07T07:12:41;38.30;;;12.45;;
29330;SDS011;16331;52.528;13.342;2022-12-07T07:15:08;42.25;;;12.80;;
29330;SDS011;16331;52.528;13.342;2022-12-07T07:17:34;47.17;;;14.32;;
29330;SDS011;16331;52.528;13.342;2022-12-07T07:20:00;35.83;;;12.75;;
29330;SDS011;16331;52.528;13.342;2022-12-07T07:22:27;37.67;;;12.88;;
29330;SDS011;16331;52.528;13.342;2022-12-07T07:24:53;38.33;;;11.55;;
29330;SDS011;16331;52.528;13.342;2022-12-07T07:27:19;40.70;;;12.15;;
29330;SDS011;16331;52.528;13.342;2022-12-07T07:29:46;44.08;;;11.90;;
29330;SDS011;16331;52.528;13.342;2022-12-07T07:32:14;31.40;;;11.27;;
29330;SDS011;16331;52.528;13.342;2022-12-07T07:34:40;37.75;;;13.20;;
29330;SDS011;16331;52.528;13.342;2022-12-07T07:37:07;45.95;;;11.70;;
29330;SDS011;16331;52.528;13.342;2022-12-07T07:39:34;38.28;;;10.90;;
29330;SDS011;16331;52.528;13.342;2022-12-07T07:42:00;33.92;;;10.48;;
29330;SDS011;16331;52.528;13.342;2022-12-07T07:44:26;39.85;;;11.00;;
29330;SDS011;16331;52.528;13.342;2022-12-07T07:46:53;36.38;;;12.15;;
29330;SDS011;16331;52.528;13.342;2022-12-07T07:49:21;43.13;;;10.82;;
29330;SDS011;16331;52.528;13.342;2022-12-07T07:51:48;42.67;;;11.32;;
29330;SDS011;16331;52.528;13.342;2022-12-07T07:54:14;33.88;;;8.65;;
29330;SDS011;16331;52.528;13.342;2022-12-07T07:56:40;31.48;;;10.65;;
29330;SDS011;16331;52.528;13.342;2022-12-07T07:59:08;33.80;;;11.02;;
29330;SDS011;16331;52.528;13.342;2022-12-07T08:01:34;37.45;;;11.07;;
29330;SDS011;16331;52.528;13.342;2022-12-07T08:04:01;23.20;;;7.80;;
29330;SDS011;16331;52.528;13.342;2022-12-07T08:06:28;28.52;;;8.30;;
29330;SDS011;16331;52.528;13.342;2022-12-07T08:08:58;25.30;;;9.45;;
29330;SDS011;16331;52.528;13.342;2022-12-07T08:11:24;29.95;;;9.70;;
29330;SDS011;16331;52.528;13.342;2022-12-07T08:13:50;25.02;;;8.07;;
29330;SDS011;16331;52.528;13.342;2022-12-07T08:16:17;19.75;;;8.07;;
29330;SDS011;16331;52.528;13.342;2022-12-07T08:18:43;19.52;;;7.20;;
29330;SDS011;16331;52.528;13.342;2022-12-07T08:21:10;24.65;;;6.60;;
29330;SDS011;16331;52.528;13.342;2022-12-07T08:23:37;18.25;;;7.53;;
29330;SDS011;16331;52.528;13.342;2022-12-07T08:26:05;13.70;;;5.45;;
29330;SDS011;16331;52.528;13.342;2022-12-07T08:28:36;18.40;;;6.18;;
29330;SDS011;16331;52.528;13.342;2022-12-07T08:31:03;14.27;;;5.57;;
29330;SDS011;16331;52.528;13.342;2022-12-07T08:33:34;11.75;;;5.22;;
29330;SDS011;16331;52.528;13.342;2022-12-07T08:36:01;18.38;;;5.75;;
29330;SDS011;16331;52.528;13.342;2022-12-07T08:38:29;12.07;;;5.95;;
29330;SDS011;16331;52.528;13.342;2022-12-07T08:40:57;15.50;;;5.03;;
29330;SDS011;16331;52.528;13.342;2022-12-07T08:43:25;9.50;;;4.43;;
29330;SDS011;16331;52.528;13.342;2022-12-07T08:46:06;5.63;;;3.30;;
29330;SDS011;16331;52.528;13.342;2022-12-07T08:48:58;6.38;;;3.95;;
29330;SDS011;16331;52.528;13.342;2022-12-07T08:51:32;4.18;;;2.03;;
29330;SDS011;16331;52.528;13.342;2022-12-07T08:54:00;5.13;;;2.63;;
29330;SDS011;16331;52.528;13.342;2022-12-07T08:56:31;7.82;;;2.92;;
29330;SDS011;16331;52.528;13.342;2022-12-07T08:58:57;5.63;;;2.55;;
29330;SDS011;16331;52.528;13.342;2022-12-07T09:01:24;3.03;;;2.25;;
29330;SDS011;16331;52.528;13.342;2022-12-07T09:03:54;4.65;;;2.13;;
29330;SDS011;16331;52.528;13.342;2022-12-07T09:06:22;6.22;;;2.22;;
29330;SDS011;16331;52.528;13.342;2022-12-07T09:08:50;3.13;;;2.08;;
29330;SDS011;16331;52.528;13.342;2022-12-07T09:11:21;4.22;;;1.98;;
29330;SDS011;16331;52.528;13.342;2022-12-07T09:13:48;2.30;;;1.52;;
29330;SDS011;16331;52.528;13.342;2022-12-07T09:16:15;4.97;;;2.28;;
29330;SDS011;16331;52.528;13.342;2022-12-07T09:18:43;3.38;;;1.90;;
29330;SDS011;16331;52.528;13.342;2022-12-07T09:21:09;8.02;;;1.98;;
29330;SDS011;16331;52.528;13.342;2022-12-07T09:23:36;2.45;;;1.70;;
29330;SDS011;16331;52.528;13.342;2022-12-07T09:26:03;2.83;;;2.05;;
29330;SDS011;16331;52.528;13.342;2022-12-07T09:28:30;3.65;;;1.83;;
29330;SDS011;16331;52.528;13.342;2022-12-07T09:30:56;3.70;;;2.03;;
29330;SDS011;16331;52.528;13.342;2022-12-07T09:33:23;3.25;;;1.85;;
29330;SDS011;16331;52.528;13.342;2022-12-07T09:35:50;5.97;;;2.20;;
29330;SDS011;16331;52.528;13.342;2022-12-07T09:38:18;4.15;;;1.75;;
29330;SDS011;16331;52.528;13.342;2022-12-07T09:40:45;3.55;;;1.73;;
29330;SDS011;16331;52.528;13.342;2022-12-07T09:43:16;5.20;;;2.35;;
29330;SDS011;16331;52.528;13.342;2022-12-07T09:45:49;2.63;;;1.58;;
29330;SDS011;16331;52.528;13.342;2022-12-07T09:48:23;1.85;;;1.58;;
29330;SDS011;16331;52.528;13.342;2022-12-07T09:50:57;3.20;;;1.33;;
29330;SDS011;16331;52.528;13.342;2022-12-07T09:53:28;1.30;;;1.10;;
29330;SDS011;16331;52.528;13.342;2022-12-07T09:55:59;2.28;;;1.48;;
29330;SDS011;16331;52.528;13.342;2022-12-07T09:58:26;2.25;;;1.50;;
29330;SDS011;16331;52.528;13.342;2022-12-07T10:00:55;2.58;;;1.48;;
29330;SDS011;16331;52.528;13.342;2022-12-07T10:03:26;2.63;;;1.70;;
29330;SDS011;16331;52.528;13.342;2022-12-07T10:05:54;2.28;;;1.60;;
29330;SDS011;16331;52.528;13.342;2022-12-07T10:08:21;2.28;;;1.15;;
29330;SDS011;16331;52.528;13.342;2022-12-07T10:10:51;2.05;;;1.40;;
29330;SDS011;16331;52.528;13.342;2022-12-07T10:13:19;3.08;;;1.48;;
29330;SDS011;16331;52.528;13.342;2022-12-07T10:16:00;4.40;;;2.07;;
29330;SDS011;16331;52.528;13.342;2022-12-07T10:24:01;1.88;;;1.38;;
29330;SDS011;16331;52.528;13.342;2022-12-07T10:34:45;3.47;;;1.88;;
29330;SDS011;16331;52.528;13.342;2022-12-07T10:39:54;4.55;;;1.90;;
29330;SDS011;16331;52.528;13.342;2022-12-07T10:42:25;3.20;;;1.83;;
29330;SDS011;16331;52.528;13.342;2022-12-07T10:45:30;3.65;;;2.60;;
29330;SDS011;16331;52.528;13.342;2022-12-07T10:53:39;4.20;;;2.35;;
29330;SDS011;16331;52.528;13.342;2022-12-07T10:56:21;5.30;;;2.63;;
29330;SDS011;16331;52.528;13.342;2022-12-07T11:04:58;4.85;;;3.20;;
29330;SDS011;16331;52.528;13.342;2022-12-07T11:07:58;2.80;;;1.92;;
29330;SDS011;16331;52.528;13.342;2022-12-07T11:10:48;4.97;;;3.22;;
29330;SDS011;16331;52.528;13.342;2022-12-07T11:13:56;6.38;;;2.97;;
29330;SDS011;16331;52.528;13.342;2022-12-07T11:16:55;5.10;;;2.97;;
29330;SDS011;16331;52.528;13.342;2022-12-07T11:19:32;4.90;;;2.50;;
29330;SDS011;16331;52.528;13.342;2022-12-07T11:22:30;6.03;;;2.47;;
29330;SDS011;16331;52.528;13.342;2022-12-07T11:25:21;4.07;;;2.55;;
29330;SDS011;16331;52.528;13.342;2022-12-07T11:31:30;7.72;;;3.10;;
29330;SDS011;16331;52.528;13.342;2022-12-07T11:34:13;8.27;;;3.60;;
29330;SDS011;16331;52.528;13.342;2022-12-07T11:37:07;4.40;;;2.35;;
29330;SDS011;16331;52.528;13.342;2022-12-07T11:39:42;5.28;;;3.13;;
29330;SDS011;16331;52.528;13.342;2022-12-07T11:42:39;6.55;;;3.20;;
29330;SDS011;16331;52.528;13.342;2022-12-07T11:45:26;10.43;;;3.22;;
29330;SDS011;16331;52.528;13.342;2022-12-07T11:50:41;8.15;;;3.17;;
29330;SDS011;16331;52.528;13.342;2022-12-07T11:53:23;12.25;;;4.97;;
29330;SDS011;16331;52.528;13.342;2022-12-07T11:55:56;10.90;;;3.53;;
29330;SDS011;16331;52.528;13.342;2022-12-07T11:58:44;13.00;;;3.28;;
29330;SDS011;16331;52.528;13.342;2022-12-07T12:01:31;10.85;;;3.45;;
29330;SDS011;16331;52.528;13.342;2022-12-07T12:06:37;6.60;;;2.60;;
29330;SDS011;16331;52.528;13.342;2022-12-07T12:12:39;11.60;;;3.38;;
29330;SDS011;16331;52.528;13.342;2022-12-07T12:18:26;6.90;;;3.15;;
29330;SDS011;16331;52.528;13.342;2022-12-07T12:21:07;8.40;;;3.05;;
29330;SDS011;16331;52.528;13.342;2022-12-07T12:23:40;5.28;;;2.88;;
29330;SDS011;16331;52.528;13.342;2022-12-07T12:26:18;8.15;;;3.05;;
29330;SDS011;16331;52.528;13.342;2022-12-07T12:29:02;3.50;;;2.30;;
29330;SDS011;16331;52.528;13.342;2022-12-07T12:31:37;9.57;;;2.35;;
29330;SDS011;16331;52.528;13.342;2022-12-07T12:42:49;9.27;;;2.13;;
29330;SDS011;16331;52.528;13.342;2022-12-07T12:47:59;4.63;;;2.20;;
29330;SDS011;16331;52.528;13.342;2022-12-07T12:50:59;5.75;;;1.80;;
29330;SDS011;16331;52.528;13.342;2022-12-07T12:54:03;7.50;;;1.92;;
29330;SDS011;16331;52.528;13.342;2022-12-07T12:56:41;5.90;;;2.28;;
29330;SDS011;16331;52.528;13.342;2022-12-07T13:01:50;3.65;;;2.10;;
29330;SDS011;16331;52.528;13.342;2022-12-07T13:04:24;4.28;;;1.98;;
29330;SDS011;16331;52.528;13.342;2022-12-07T13:06:53;5.55;;;1.95;;
29330;SDS011;16331;52.528;13.342;2022-12-07T13:09:20;5.80;;;2.22;;
29330;SDS011;16331;52.528;13.342;2022-12-07T13:12:05;13.40;;;2.83;;
29330;SDS011;16331;52.528;13.342;2022-12-07T13:14:58;3.45;;;1.50;;
29330;SDS011;16331;52.528;13.342;2022-12-07T13:20:06;8.50;;;2.08;;
29330;SDS011;16331;52.528;13.342;2022-12-07T13:23:04;6.68;;;2.63;;
29330;SDS011;16331;52.528;13.342;2022-12-07T13:25:36;4.35;;;2.33;;
29330;SDS011;16331;52.528;13.342;2022-12-07T13:28:15;5.18;;;1.90;;
29330;SDS011;16331;52.528;13.342;2022-12-07T13:30:44;4.30;;;1.65;;
29330;SDS011;16331;52.528;13.342;2022-12-07T13:33:19;7.45;;;2.28;;
29330;SDS011;16331;52.528;13.342;2022-12-07T13:35:46;5.60;;;1.98;;
29330;SDS011;16331;52.528;13.342;2022-12-07T13:40:59;4.70;;;1.63;;
29330;SDS011;16331;52.528;13.342;2022-12-07T13:43:30;9.05;;;2.15;;
29330;SDS011;16331;52.528;13.342;2022-12-07T13:45:59;3.25;;;1.85;;
29330;SDS011;16331;52.528;13.342;2022-12-07T13:48:44;2.47;;;1.50;;
29330;SDS011;16331;52.528;13.342;2022-12-07T13:51:27;2.72;;;1.73;;
29330;SDS011;16331;52.528;13.342;2022-12-07T13:53:59;5.20;;;2.17;;
29330;SDS011;16331;52.528;13.342;2022-12-07T13:56:34;3.53;;;1.88;;
29330;SDS011;16331;52.528;13.342;2022-12-07T13:59:02;6.28;;;2.30;;
29330;SDS011;16331;52.528;13.342;2022-12-07T14:01:37;4.60;;;2.42;;
29330;SDS011;16331;52.528;13.342;2022-12-07T14:04:16;5.60;;;2.25;;
29330;SDS011;16331;52.528;13.342;2022-12-07T14:06:59;4.18;;;1.67;;
29330;SDS011;16331;52.528;13.342;2022-12-07T14:09:52;3.75;;;1.65;;
29330;SDS011;16331;52.528;13.342;2022-12-07T14:12:26;3.25;;;1.80;;
29330;SDS011;16331;52.528;13.342;2022-12-07T14:14:54;6.50;;;2.13;;
29330;SDS011;16331;52.528;13.342;2022-12-07T14:17:23;8.25;;;2.15;;
29330;SDS011;16331;52.528;13.342;2022-12-07T14:19:52;5.35;;;1.65;;
29330;SDS011;16331;52.528;13.342;2022-12-07T14:25:01;2.78;;;1.35;;
29330;SDS011;16331;52.528;13.342;2022-12-07T14:27:34;7.13;;;2.50;;
29330;SDS011;16331;52.528;13.342;2022-12-07T14:30:02;1.98;;;1.63;;
29330;SDS011;16331;52.528;13.342;2022-12-07T14:32:30;8.30;;;1.85;;
29330;SDS011;16331;52.528;13.342;2022-12-07T14:34:58;9.18;;;1.73;;
29330;SDS011;16331;52.528;13.342;2022-12-07T14:37:35;9.20;;;2.53;;
29330;SDS011;16331;52.528;13.342;2022-12-07T14:40:04;3.58;;;1.88;;
29330;SDS011;16331;52.528;13.342;2022-12-07T14:42:33;4.63;;;2.05;;
29330;SDS011;16331;52.528;13.342;2022-12-07T14:45:00;16.35;;;6.00;;
29330;SDS011;16331;52.528;13.342;2022-12-07T14:47:26;5.78;;;2.67;;
29330;SDS011;16331;52.528;13.342;2022-12-07T14:49:53;10.68;;;1.98;;
29330;SDS011;16331;52.528;13.342;2022-12-07T14:52:23;7.20;;;1.80;;
29330;SDS011;16331;52.528;13.342;2022-12-07T14:54:55;4.43;;;1.65;;
29330;SDS011;16331;52.528;13.342;2022-12-07T14:57:22;4.93;;;1.85;;
29330;SDS011;16331;52.528;13.342;2022-12-07T14:59:48;14.13;;;2.55;;
29330;SDS011;16331;52.528;13.342;2022-12-07T15:02:16;3.85;;;2.05;;
29330;SDS011;16331;52.528;13.342;2022-12-07T15:04:42;3.60;;;1.42;;
29330;SDS011;16331;52.528;13.342;2022-12-07T15:07:13;3.53;;;1.80;;
29330;SDS011;16331;52.528;13.342;2022-12-07T15:09:45;7.32;;;2.20;;
29330;SDS011;16331;52.528;13.342;2022-12-07T15:12:11;6.80;;;2.17;;
29330;SDS011;16331;52.528;13.342;2022-12-07T15:14:38;5.88;;;1.77;;
29330;SDS011;16331;52.528;13.342;2022-12-07T15:17:05;5.93;;;1.65;;
29330;SDS011;16331;52.528;13.342;2022-12-07T15:19:31;6.47;;;1.83;;
29330;SDS011;16331;52.528;13.342;2022-12-07T15:21:58;3.85;;;1.67;;
29330;SDS011;16331;52.528;13.342;2022-12-07T15:24:25;7.90;;;2.85;;
29330;SDS011;16331;52.528;13.342;2022-12-07T15:26:52;3.42;;;2.00;;
29330;SDS011;16331;52.528;13.342;2022-12-07T15:29:18;4.00;;;1.80;;
29330;SDS011;16331;52.528;13.342;2022-12-07T15:31:48;5.07;;;2.03;;
29330;SDS011;16331;52.528;13.342;2022-12-07T15:34:15;2.15;;;1.48;;
29330;SDS011;16331;52.528;13.342;2022-12-07T15:36:44;4.70;;;1.85;;
29330;SDS011;16331;52.528;13.342;2022-12-07T15:39:11;6.15;;;2.50;;
29330;SDS011;16331;52.528;13.342;2022-12-07T15:41:37;5.93;;;1.60;;
29330;SDS011;16331;52.528;13.342;2022-12-07T15:44:03;2.80;;;1.65;;
29330;SDS011;16331;52.528;13.342;2022-12-07T15:53:33;9.93;;;3.25;;
29330;SDS011;16331;52.528;13.342;2022-12-07T15:56:00;5.75;;;2.25;;
29330;SDS011;16331;52.528;13.342;2022-12-07T15:58:27;3.92;;;1.77;;
29330;SDS011;16331;52.528;13.342;2022-12-07T16:00:55;9.75;;;1.98;;
29330;SDS011;16331;52.528;13.342;2022-12-07T16:03:22;8.00;;;2.55;;
29330;SDS011;16331;52.528;13.342;2022-12-07T16:05:48;17.35;;;3.22;;
29330;SDS011;16331;52.528;13.342;2022-12-07T16:08:15;8.80;;;2.30;;
29330;SDS011;16331;52.528;13.342;2022-12-07T16:10:42;8.88;;;2.40;;
29330;SDS011;16331;52.528;13.342;2022-12-07T16:13:11;5.45;;;1.83;;
29330;SDS011;16331;52.528;13.342;2022-12-07T16:15:39;5.95;;;2.45;;
29330;SDS011;16331;52.528;13.342;2022-12-07T16:18:07;7.57;;;2.42;;
29330;SDS011;16331;52.528;13.342;2022-12-07T16:20:33;5.85;;;1.85;;
29330;SDS011;16331;52.528;13.342;2022-12-07T16:23:00;5.22;;;2.08;;
29330;SDS011;16331;52.528;13.342;2022-12-07T16:25:29;4.57;;;2.42;;
29330;SDS011;16331;52.528;13.342;2022-12-07T16:28:01;6.70;;;2.45;;
29330;SDS011;16331;52.528;13.342;2022-12-07T16:30:28;3.20;;;2.30;;
29330;SDS011;16331;52.528;13.342;2022-12-07T16:32:56;10.15;;;2.60;;
29330;SDS011;16331;52.528;13.342;2022-12-07T16:35:22;8.32;;;1.88;;
29330;SDS011;16331;52.528;13.342;2022-12-07T16:37:48;7.50;;;2.17;;
29330;SDS011;16331;52.528;13.342;2022-12-07T16:40:14;8.32;;;2.20;;
29330;SDS011;16331;52.528;13.342;2022-12-07T16:42:40;10.60;;;2.45;;
29330;SDS011;16331;52.528;13.342;2022-12-07T16:45:07;11.00;;;2.25;;